createdAt,value
2023-04-30T00:02:46.814Z,17.91
2023-04-30T00:06:50.330Z,17.65
2023-04-30T00:10:51.919Z,17.94
2023-04-30T00:14:52.713Z,17.88
2023-04-30T00:18:53.116Z,17.92
2023-04-30T00:22:56.427Z,17.50
2023-04-30T00:26:57.112Z,17.69
2023-04-30T00:30:57.800Z,17.88
2023-04-30T00:34:58.215Z,17.37
2023-04-30T00:39:01.181Z,17.48
2023-04-30T00:43:01.377Z,17.28
2023-04-30T00:47:04.165Z,17.62
2023-04-30T00:51:07.576Z,17.79
2023-04-30T00:55:12.396Z,17.67
2023-04-30T00:59:13.713Z,17.74
2023-04-30T01:03:14.091Z,17.77
2023-04-30T01:07:14.613Z,17.81
2023-04-30T01:11:27.261Z,17.62
2023-04-30T01:15:37.827Z,17.51
2023-04-30T01:19:45.448Z,17.12
2023-04-30T01:24:09.424Z,17.26
2023-04-30T01:28:17.623Z,17.36
2023-04-30T01:32:18.641Z,17.22
2023-04-30T01:36:38.029Z,17.18
2023-04-30T01:40:56.106Z,17.04
2023-04-30T01:45:25.884Z,17.27
2023-04-30T01:49:41.057Z,17.14
2023-04-30T01:53:47.385Z,17.09
2023-04-30T01:57:58.690Z,16.95
2023-04-30T02:02:01.874Z,17.05
2023-04-30T02:06:02.194Z,17.05
2023-04-30T02:10:02.481Z,16.90
2023-04-30T02:14:03.252Z,16.98
2023-04-30T02:18:06.260Z,17.17
2023-04-30T02:22:06.494Z,17.13
2023-04-30T02:26:06.700Z,17.20
2023-04-30T02:30:08.384Z,17.38
2023-04-30T02:34:11.284Z,17.35
2023-04-30T02:38:11.529Z,17.32
2023-04-30T02:42:11.766Z,17.09
2023-04-30T02:46:12.075Z,17.27
2023-04-30T02:50:15.078Z,16.96
2023-04-30T02:54:15.437Z,17.47
2023-04-30T02:58:15.880Z,17.49
2023-04-30T03:02:16.973Z,17.49
2023-04-30T03:06:20.072Z,17.17
2023-04-30T03:10:20.485Z,17.54
2023-04-30T03:14:21.094Z,17.05
2023-04-30T03:18:22.468Z,16.81
2023-04-30T03:22:26.876Z,16.96
2023-04-30T03:26:27.460Z,17.20
2023-04-30T03:30:28.077Z,16.95
2023-04-30T03:34:28.719Z,16.87
2023-04-30T03:38:31.727Z,16.66
2023-04-30T03:42:32.004Z,17.01
2023-04-30T03:46:32.480Z,16.94
2023-04-30T03:50:33.099Z,16.72
2023-04-30T03:54:36.664Z,16.98
2023-04-30T03:58:39.111Z,16.96
2023-04-30T04:02:39.571Z,16.90
2023-04-30T04:06:42.735Z,16.94
2023-04-30T04:10:46.007Z,16.91
2023-04-30T04:14:46.505Z,17.05
2023-04-30T04:18:47.288Z,16.89
2023-04-30T04:22:47.737Z,17.09
2023-04-30T04:26:50.845Z,17.25
2023-04-30T04:30:51.311Z,17.26
2023-04-30T04:34:51.649Z,17.38
2023-04-30T04:38:51.998Z,17.43
2023-04-30T04:42:56.045Z,17.49
2023-04-30T04:46:56.976Z,17.36
2023-04-30T04:50:57.997Z,17.70
2023-04-30T04:54:58.861Z,18.01
2023-04-30T04:59:03.014Z,17.91
2023-04-30T05:03:03.473Z,18.10
2023-04-30T05:07:04.182Z,17.86
2023-04-30T05:11:04.633Z,18.11
2023-04-30T05:15:08.978Z,18.17
2023-04-30T05:19:09.962Z,17.80
2023-04-30T05:23:11.135Z,18.24
2023-04-30T05:27:12.013Z,18.73
2023-04-30T05:31:14.885Z,18.89
2023-04-30T05:35:15.309Z,18.78
2023-04-30T05:39:15.476Z,19.01
2023-04-30T05:43:16.309Z,18.91
2023-04-30T05:47:19.458Z,18.91
2023-04-30T05:51:19.678Z,18.72
2023-04-30T05:55:20.509Z,18.93
2023-04-30T05:59:20.823Z,18.73
2023-04-30T06:03:24.178Z,18.54
2023-04-30T06:07:25.126Z,18.26
2023-04-30T06:11:25.843Z,18.12
2023-04-30T06:15:26.205Z,18.23
2023-04-30T06:19:29.179Z,18.08
2023-04-30T06:23:29.416Z,18.25
2023-04-30T06:27:30.039Z,18.40
2023-04-30T06:31:30.592Z,18.13
2023-04-30T06:35:33.553Z,18.58
2023-04-30T06:39:33.730Z,18.51
2023-04-30T06:43:33.956Z,18.27
2023-04-30T06:47:36.493Z,18.50
2023-04-30T06:51:39.529Z,19.24
2023-04-30T06:55:39.631Z,19.28
2023-04-30T06:59:40.018Z,19.15
2023-04-30T07:03:40.331Z,19.60
2023-04-30T07:07:43.947Z,19.52
2023-04-30T07:11:44.499Z,19.06
2023-04-30T07:15:45.931Z,19.19
2023-04-30T07:19:46.974Z,19.04
2023-04-30T07:23:51.740Z,19.27
2023-04-30T07:27:51.930Z,19.65
2023-04-30T07:31:52.100Z,19.65
2023-04-30T07:35:52.779Z,20.05
2023-04-30T07:39:55.785Z,20.29
2023-04-30T07:43:57.003Z,20.14
2023-04-30T07:47:57.286Z,19.87
2023-04-30T07:51:57.803Z,21.08
2023-04-30T07:56:00.621Z,21.83
2023-04-30T08:00:01.180Z,22.46
2023-04-30T08:04:01.638Z,22.81
2023-04-30T08:08:02.094Z,22.54
2023-04-30T08:12:05.265Z,22.06
2023-04-30T08:16:05.566Z,21.58
2023-04-30T08:20:09.756Z,22.63
2023-04-30T08:24:10.005Z,23.44
2023-04-30T08:28:12.981Z,24.18
2023-04-30T08:32:13.349Z,24.52
2023-04-30T08:36:13.774Z,23.01
2023-04-30T08:40:16.676Z,22.60
2023-04-30T08:44:19.835Z,24.61
2023-04-30T08:48:23.730Z,25.02
2023-04-30T08:52:26.082Z,26.84
2023-04-30T08:56:26.601Z,27.95
2023-04-30T09:00:30.380Z,29.32
2023-04-30T09:04:30.865Z,30.02
2023-04-30T09:08:47.143Z,29.51
2023-04-30T09:13:01.636Z,28.71
2023-04-30T09:17:04.520Z,29.28
2023-04-30T09:21:08.379Z,29.40
2023-04-30T09:25:11.534Z,29.88
2023-04-30T09:29:11.994Z,30.85
2023-04-30T09:33:15.022Z,30.40
2023-04-30T09:37:16.127Z,29.50
2023-04-30T09:41:29.181Z,30.25
2023-04-30T09:45:30.761Z,28.86
2023-04-30T09:49:35.076Z,28.31
2023-04-30T09:53:40.872Z,27.46
2023-04-30T09:57:41.519Z,28.60
2023-04-30T10:01:42.716Z,28.81
2023-04-30T10:05:48.859Z,27.28
2023-04-30T10:09:54.270Z,28.65
2023-04-30T10:14:02.220Z,27.42
2023-04-30T10:18:09.196Z,27.25
2023-04-30T10:22:13.659Z,28.04
2023-04-30T10:26:14.415Z,27.28
2023-04-30T10:30:16.613Z,27.44
2023-04-30T10:34:31.925Z,28.90
2023-04-30T10:38:38.331Z,30.82
2023-04-30T10:42:40.179Z,30.44
2023-04-30T10:46:41.321Z,28.71
2023-04-30T10:50:47.030Z,28.29
2023-04-30T10:54:53.779Z,28.15
2023-04-30T10:58:54.395Z,28.34
2023-04-30T11:03:10.727Z,27.56
2023-04-30T11:07:13.750Z,28.98
2023-04-30T11:11:24.168Z,28.36
2023-04-30T11:15:28.617Z,27.37
2023-04-30T11:19:30.853Z,27.68
2023-04-30T11:23:39.401Z,30.24
2023-04-30T11:27:46.851Z,29.36
2023-04-30T11:31:48.111Z,27.91
2023-04-30T11:35:49.636Z,27.60
2023-04-30T11:39:51.453Z,27.47
2023-04-30T11:43:54.320Z,25.76
2023-04-30T11:47:57.899Z,25.96
2023-04-30T11:51:59.047Z,26.88
2023-04-30T11:55:59.545Z,29.94
2023-04-30T12:00:15.720Z,31.50
2023-04-30T12:04:17.341Z,31.31
2023-04-30T12:08:17.933Z,30.22
2023-04-30T12:12:28.989Z,29.76
2023-04-30T12:16:42.933Z,30.75
2023-04-30T12:20:44.502Z,29.36
2023-04-30T12:24:46.172Z,28.65
2023-04-30T12:28:46.492Z,27.48
2023-04-30T12:32:54.121Z,26.83
2023-04-30T12:36:54.678Z,27.91
2023-04-30T12:40:55.210Z,30.17
2023-04-30T12:44:55.470Z,32.20
2023-04-30T12:49:00.171Z,33.41
2023-04-30T12:53:05.692Z,34.58
2023-04-30T12:57:08.621Z,33.83
2023-04-30T13:01:14.275Z,31.73
2023-04-30T13:05:17.395Z,31.40
2023-04-30T13:09:17.718Z,32.10
2023-04-30T13:13:21.674Z,33.96
2023-04-30T13:17:22.906Z,34.63
2023-04-30T13:21:25.750Z,35.88
2023-04-30T13:25:26.030Z,35.82
2023-04-30T13:29:26.386Z,32.93
2023-04-30T13:33:26.962Z,31.51
2023-04-30T13:37:32.247Z,30.17
2023-04-30T13:41:32.356Z,29.64
2023-04-30T13:45:32.899Z,29.00
2023-04-30T13:49:33.112Z,29.52
2023-04-30T13:53:36.853Z,31.10
2023-04-30T13:57:37.018Z,31.55
2023-04-30T14:01:38.230Z,32.31
2023-04-30T14:05:39.541Z,31.82
2023-04-30T14:09:42.475Z,32.80
2023-04-30T14:13:42.623Z,32.15
2023-04-30T14:17:42.756Z,30.70
2023-04-30T14:21:43.066Z,29.54
2023-04-30T14:25:46.190Z,29.17
2023-04-30T14:29:46.469Z,30.23
2023-04-30T14:33:46.888Z,32.22
2023-04-30T14:37:47.284Z,33.77
2023-04-30T14:41:51.590Z,35.45
2023-04-30T14:45:52.058Z,34.97
2023-04-30T14:49:53.655Z,35.91
2023-04-30T14:53:54.168Z,33.06
2023-04-30T14:57:56.964Z,29.68
2023-04-30T15:01:57.504Z,28.36
2023-04-30T15:05:58.136Z,27.59
2023-04-30T15:09:59.036Z,28.59
2023-04-30T15:14:01.981Z,30.14
2023-04-30T15:18:04.216Z,30.99
2023-04-30T15:22:04.454Z,31.20
2023-04-30T15:26:05.522Z,31.36
2023-04-30T15:30:12.661Z,29.93
2023-04-30T15:34:12.930Z,29.08
2023-04-30T15:38:13.155Z,28.78
2023-04-30T15:42:14.041Z,28.04
2023-04-30T15:46:17.155Z,28.12
2023-04-30T15:50:17.628Z,28.67
2023-04-30T15:54:18.137Z,28.29
2023-04-30T15:58:18.760Z,29.06
2023-04-30T16:02:22.342Z,28.23
2023-04-30T16:06:23.150Z,27.93
2023-04-30T16:10:23.751Z,27.11
2023-04-30T16:14:24.258Z,28.07
2023-04-30T16:18:30.019Z,28.74
2023-04-30T16:22:31.091Z,29.89
2023-04-30T16:26:31.179Z,30.78
2023-04-30T16:30:31.966Z,31.28
2023-04-30T16:34:35.000Z,31.66
2023-04-30T16:38:36.072Z,30.77
2023-04-30T16:42:38.060Z,28.40
2023-04-30T16:46:41.397Z,27.75
2023-04-30T16:50:44.197Z,28.12
2023-04-30T16:54:44.419Z,29.41
2023-04-30T16:58:44.579Z,28.76
2023-04-30T17:02:45.867Z,29.51
2023-04-30T17:06:49.586Z,28.52
2023-04-30T17:10:49.872Z,28.12
2023-04-30T17:14:50.379Z,28.03
2023-04-30T17:18:50.575Z,27.62
2023-04-30T17:22:53.736Z,28.04
2023-04-30T17:26:55.250Z,26.93
2023-04-30T17:30:56.734Z,26.58
2023-04-30T17:34:58.066Z,26.32
2023-04-30T17:39:04.330Z,25.81
2023-04-30T17:43:04.903Z,25.28
2023-04-30T17:47:05.819Z,24.77
2023-04-30T17:51:06.856Z,24.42
2023-04-30T17:55:11.876Z,24.57
2023-04-30T17:59:12.807Z,24.26
2023-04-30T18:03:13.511Z,23.68
2023-04-30T18:07:13.868Z,23.93
2023-04-30T18:11:17.182Z,23.59
2023-04-30T18:15:17.604Z,23.26
2023-04-30T18:19:18.306Z,22.46
2023-04-30T18:23:19.014Z,22.44
2023-04-30T18:27:22.072Z,21.55
2023-04-30T18:31:22.721Z,21.68
2023-04-30T18:35:23.454Z,21.40
2023-04-30T18:39:24.168Z,21.16
2023-04-30T18:43:27.289Z,20.76
2023-04-30T18:47:27.844Z,20.60
2023-04-30T18:51:28.497Z,20.41
2023-04-30T18:55:28.908Z,20.12
2023-04-30T18:59:32.234Z,19.92
2023-04-30T19:03:34.152Z,19.86
2023-04-30T19:07:35.054Z,19.65
2023-04-30T19:11:36.342Z,19.66
2023-04-30T19:15:39.622Z,19.48
2023-04-30T19:19:39.952Z,19.01
2023-04-30T19:23:40.706Z,18.97
2023-04-30T19:27:41.241Z,18.44
2023-04-30T19:31:44.410Z,18.92
2023-04-30T19:35:44.982Z,18.97
2023-04-30T19:39:46.311Z,18.56
2023-04-30T19:43:46.590Z,18.43
2023-04-30T19:47:49.955Z,18.47
2023-04-30T19:51:50.542Z,18.74
2023-04-30T19:55:52.076Z,18.59
2023-04-30T19:59:52.887Z,18.43
2023-04-30T20:03:56.063Z,18.15
2023-04-30T20:07:56.504Z,18.33
2023-04-30T20:11:58.100Z,18.20
2023-04-30T20:15:58.897Z,18.18
2023-04-30T20:20:03.281Z,17.95
2023-04-30T20:24:04.739Z,17.98
2023-04-30T20:28:05.153Z,17.87
2023-04-30T20:32:05.692Z,17.87
2023-04-30T20:36:08.985Z,17.89
2023-04-30T20:40:11.863Z,17.77
2023-04-30T20:44:13.293Z,17.61
2023-04-30T20:48:14.300Z,17.40
2023-04-30T20:52:18.922Z,17.56
2023-04-30T20:56:19.555Z,17.46
2023-04-30T21:00:20.340Z,17.48
2023-04-30T21:04:20.905Z,17.58
2023-04-30T21:08:24.304Z,17.42
2023-04-30T21:12:24.594Z,17.51
2023-04-30T21:16:24.851Z,17.32
2023-04-30T21:20:25.036Z,17.12
2023-04-30T21:24:27.841Z,16.80
2023-04-30T21:28:28.142Z,16.78
2023-04-30T21:32:28.489Z,16.37
2023-04-30T21:36:30.288Z,16.62
2023-04-30T21:40:34.982Z,16.12
2023-04-30T21:44:36.319Z,16.21
2023-04-30T21:48:38.790Z,16.02
2023-04-30T21:52:39.038Z,15.97
2023-04-30T21:56:42.893Z,16.01
2023-04-30T22:00:43.666Z,15.97
2023-04-30T22:04:43.933Z,15.88
2023-04-30T22:08:44.416Z,15.94
2023-04-30T22:12:48.277Z,15.86
2023-04-30T22:16:48.661Z,15.85
2023-04-30T22:20:52.168Z,15.67
2023-04-30T22:24:52.615Z,15.59
2023-04-30T22:28:55.680Z,15.57
2023-04-30T22:32:59.265Z,15.61
2023-04-30T22:36:59.690Z,15.76
2023-04-30T22:41:01.345Z,15.84
2023-04-30T22:45:04.457Z,15.72
2023-04-30T22:49:05.665Z,15.50
2023-04-30T22:53:06.561Z,15.49
2023-04-30T22:57:06.791Z,15.29
2023-04-30T23:01:09.684Z,15.02
2023-04-30T23:05:12.067Z,15.05
2023-04-30T23:09:13.074Z,14.98
2023-04-30T23:13:13.298Z,15.06
2023-04-30T23:17:16.572Z,14.62
2023-04-30T23:21:17.141Z,14.95
2023-04-30T23:25:17.671Z,14.95
2023-04-30T23:29:17.906Z,15.01
2023-04-30T23:33:20.896Z,15.30
2023-04-30T23:37:21.235Z,15.52
2023-04-30T23:41:21.416Z,15.42
2023-04-30T23:45:22.574Z,15.55
2023-04-30T23:49:25.757Z,15.64
2023-04-30T23:53:26.714Z,15.53
2023-04-30T23:57:28.278Z,15.65
